sensor_id;sensor_type;location;lat;lon;timestamp;temperature;humidity
15638;DHT22;26604;53.596;10.042;2022-09-02T00:01:46;21.40;1.00
15638;DHT22;26604;53.596;10.042;2022-09-02T00:04:17;21.40;1.00
15638;DHT22;26604;53.596;10.042;2022-09-02T00:06:45;21.40;1.00
15638;DHT22;26604;53.596;10.042;2022-09-02T00:09:15;21.40;1.00
15638;DHT22;26604;53.596;10.042;2022-09-02T00:11:43;21.40;1.00
15638;DHT22;26604;53.596;10.042;2022-09-02T00:14:14;21.40;1.00
15638;DHT22;26604;53.596;10.042;2022-09-02T00:16:42;21.40;1.00
15638;DHT22;26604;53.596;10.042;2022-09-02T00:19:17;21.40;1.00
15638;DHT22;26604;53.596;10.042;2022-09-02T00:21:45;21.40;1.00
15638;DHT22;26604;53.596;10.042;2022-09-02T00:24:12;21.40;1.00
15638;DHT22;26604;53.596;10.042;2022-09-02T00:26:39;21.40;1.00
15638;DHT22;26604;53.596;10.042;2022-09-02T00:29:06;21.40;1.00
15638;DHT22;26604;53.596;10.042;2022-09-02T00:31:33;21.40;1.00
15638;DHT22;26604;53.596;10.042;2022-09-02T00:34:02;21.40;1.00
15638;DHT22;26604;53.596;10.042;2022-09-02T00:36:31;21.40;99.90
15638;DHT22;26604;53.596;10.042;2022-09-02T00:38:58;21.40;99.90
15638;DHT22;26604;53.596;10.042;2022-09-02T00:41:28;21.40;99.90
15638;DHT22;26604;53.596;10.042;2022-09-02T00:43:57;21.40;99.90
15638;DHT22;26604;53.596;10.042;2022-09-02T00:46:25;21.40;99.90
15638;DHT22;26604;53.596;10.042;2022-09-02T00:48:55;21.40;99.90
15638;DHT22;26604;53.596;10.042;2022-09-02T00:51:23;21.40;99.90
15638;DHT22;26604;53.596;10.042;2022-09-02T00:53:51;21.40;99.90
15638;DHT22;26604;53.596;10.042;2022-09-02T00:56:21;21.40;99.90
15638;DHT22;26604;53.596;10.042;2022-09-02T00:58:49;21.40;99.90
15638;DHT22;26604;53.596;10.042;2022-09-02T01:01:17;21.40;99.90
15638;DHT22;26604;53.596;10.042;2022-09-02T01:03:47;21.40;99.90
15638;DHT22;26604;53.596;10.042;2022-09-02T01:06:17;21.40;91.60
15638;DHT22;26604;53.596;10.042;2022-09-02T01:08:50;21.40;38.90
15638;DHT22;26604;53.596;10.042;2022-09-02T01:11:20;21.40;1.00
15638;DHT22;26604;53.596;10.042;2022-09-02T01:13:47;21.40;1.00
15638;DHT22;26604;53.596;10.042;2022-09-02T01:16:18;21.40;1.00
15638;DHT22;26604;53.596;10.042;2022-09-02T01:18:51;21.40;1.00
15638;DHT22;26604;53.596;10.042;2022-09-02T01:21:19;21.40;1.00
15638;DHT22;26604;53.596;10.042;2022-09-02T01:23:49;21.40;1.00
15638;DHT22;26604;53.596;10.042;2022-09-02T01:26:16;21.40;1.00
15638;DHT22;26604;53.596;10.042;2022-09-02T01:28:43;21.40;1.00
15638;DHT22;26604;53.596;10.042;2022-09-02T01:31:10;21.40;1.00
15638;DHT22;26604;53.596;10.042;2022-09-02T01:33:37;21.40;1.00
15638;DHT22;26604;53.596;10.042;2022-09-02T01:36:04;21.40;1.00
15638;DHT22;26604;53.596;10.042;2022-09-02T01:38:32;21.40;1.00
15638;DHT22;26604;53.596;10.042;2022-09-02T01:41:01;21.40;1.00
15638;DHT22;26604;53.596;10.042;2022-09-02T01:43:28;21.40;1.00
15638;DHT22;26604;53.596;10.042;2022-09-02T01:45:57;21.40;99.90
15638;DHT22;26604;53.596;10.042;2022-09-02T01:48:29;21.40;99.90
15638;DHT22;26604;53.596;10.042;2022-09-02T01:50:58;21.40;99.90
15638;DHT22;26604;53.596;10.042;2022-09-02T01:53:26;21.40;99.90
15638;DHT22;26604;53.596;10.042;2022-09-02T01:55:54;21.40;99.90
15638;DHT22;26604;53.596;10.042;2022-09-02T01:58:22;21.40;99.90
15638;DHT22;26604;53.596;10.042;2022-09-02T02:00:49;21.30;99.90
15638;DHT22;26604;53.596;10.042;2022-09-02T02:03:17;21.40;99.50
15638;DHT22;26604;53.596;10.042;2022-09-02T02:05:44;21.40;58.70
15638;DHT22;26604;53.596;10.042;2022-09-02T02:08:11;21.40;45.20
15638;DHT22;26604;53.596;10.042;2022-09-02T02:10:39;21.40;34.10
15638;DHT22;26604;53.596;10.042;2022-09-02T02:13:07;21.40;23.00
15638;DHT22;26604;53.596;10.042;2022-09-02T02:15:37;21.40;18.10
15638;DHT22;26604;53.596;10.042;2022-09-02T02:18:04;21.40;12.00
15638;DHT22;26604;53.596;10.042;2022-09-02T02:20:31;21.40;1.00
15638;DHT22;26604;53.596;10.042;2022-09-02T02:22:58;21.40;1.00
15638;DHT22;26604;53.596;10.042;2022-09-02T02:25:26;21.40;1.00
15638;DHT22;26604;53.596;10.042;2022-09-02T02:27:53;21.30;1.00
15638;DHT22;26604;53.596;10.042;2022-09-02T02:30:20;21.40;1.00
15638;DHT22;26604;53.596;10.042;2022-09-02T02:32:49;21.40;1.00
15638;DHT22;26604;53.596;10.042;2022-09-02T02:35:17;21.40;1.00
15638;DHT22;26604;53.596;10.042;2022-09-02T02:37:45;21.40;99.90
15638;DHT22;26604;53.596;10.042;2022-09-02T02:40:14;21.40;99.90
15638;DHT22;26604;53.596;10.042;2022-09-02T02:42:41;21.50;99.90
15638;DHT22;26604;53.596;10.042;2022-09-02T02:45:09;21.60;99.90
15638;DHT22;26604;53.596;10.042;2022-09-02T02:47:38;21.60;1.00
15638;DHT22;26604;53.596;10.042;2022-09-02T02:50:09;21.60;1.00
15638;DHT22;26604;53.596;10.042;2022-09-02T02:52:38;21.60;1.00
15638;DHT22;26604;53.596;10.042;2022-09-02T02:55:07;21.60;1.00
15638;DHT22;26604;53.596;10.042;2022-09-02T02:57:35;21.60;1.00
15638;DHT22;26604;53.596;10.042;2022-09-02T03:00:06;21.50;99.90
15638;DHT22;26604;53.596;10.042;2022-09-02T03:02:33;21.50;99.90
15638;DHT22;26604;53.596;10.042;2022-09-02T03:05:01;21.50;99.90
15638;DHT22;26604;53.596;10.042;2022-09-02T03:07:30;21.50;44.50
15638;DHT22;26604;53.596;10.042;2022-09-02T03:09:57;21.50;31.90
15638;DHT22;26604;53.596;10.042;2022-09-02T03:12:24;21.40;35.90
15638;DHT22;26604;53.596;10.042;2022-09-02T03:14:51;21.40;47.50
15638;DHT22;26604;53.596;10.042;2022-09-02T03:17:18;21.40;54.00
15638;DHT22;26604;53.596;10.042;2022-09-02T03:19:45;21.40;52.50
15638;DHT22;26604;53.596;10.042;2022-09-02T03:22:12;21.40;49.80
15638;DHT22;26604;53.596;10.042;2022-09-02T03:24:41;21.40;42.60
15638;DHT22;26604;53.596;10.042;2022-09-02T03:27:07;21.40;43.30
15638;DHT22;26604;53.596;10.042;2022-09-02T03:29:35;21.40;45.60
15638;DHT22;26604;53.596;10.042;2022-09-02T03:32:03;21.40;42.10
15638;DHT22;26604;53.596;10.042;2022-09-02T03:34:30;21.40;42.20
15638;DHT22;26604;53.596;10.042;2022-09-02T03:36:57;21.40;35.10
15638;DHT22;26604;53.596;10.042;2022-09-02T03:39:24;21.40;27.30
15638;DHT22;26604;53.596;10.042;2022-09-02T03:41:52;21.40;18.70
15638;DHT22;26604;53.596;10.042;2022-09-02T03:44:19;21.40;9.20
15638;DHT22;26604;53.596;10.042;2022-09-02T03:46:46;21.40;1.00
15638;DHT22;26604;53.596;10.042;2022-09-02T03:49:13;21.40;1.00
15638;DHT22;26604;53.596;10.042;2022-09-02T03:51:41;21.40;1.00
15638;DHT22;26604;53.596;10.042;2022-09-02T03:54:08;21.40;1.00
15638;DHT22;26604;53.596;10.042;2022-09-02T03:56:35;21.40;1.00
15638;DHT22;26604;53.596;10.042;2022-09-02T03:59:04;21.40;1.00
15638;DHT22;26604;53.596;10.042;2022-09-02T04:01:31;21.40;1.00
15638;DHT22;26604;53.596;10.042;2022-09-02T04:03:58;21.40;1.00
15638;DHT22;26604;53.596;10.042;2022-09-02T04:06:25;21.40;1.00
15638;DHT22;26604;53.596;10.042;2022-09-02T04:08:52;21.40;1.00
15638;DHT22;26604;53.596;10.042;2022-09-02T04:11:20;21.40;1.00
15638;DHT22;26604;53.596;10.042;2022-09-02T04:13:49;21.40;1.00
15638;DHT22;26604;53.596;10.042;2022-09-02T04:16:19;21.30;1.00
15638;DHT22;26604;53.596;10.042;2022-09-02T04:18:52;21.40;1.00
15638;DHT22;26604;53.596;10.042;2022-09-02T04:21:19;21.40;1.00
15638;DHT22;26604;53.596;10.042;2022-09-02T04:23:46;21.40;1.00
15638;DHT22;26604;53.596;10.042;2022-09-02T04:26:15;21.40;1.00
15638;DHT22;26604;53.596;10.042;2022-09-02T04:28:42;21.40;1.00
15638;DHT22;26604;53.596;10.042;2022-09-02T04:31:12;21.40;99.90
15638;DHT22;26604;53.596;10.042;2022-09-02T04:33:40;21.40;99.90
15638;DHT22;26604;53.596;10.042;2022-09-02T04:36:10;21.30;99.90
15638;DHT22;26604;53.596;10.042;2022-09-02T04:38:38;21.40;99.90
15638;DHT22;26604;53.596;10.042;2022-09-02T04:41:06;21.30;99.90
15638;DHT22;26604;53.596;10.042;2022-09-02T04:43:33;21.30;99.90
15638;DHT22;26604;53.596;10.042;2022-09-02T04:46:03;21.40;99.90
15638;DHT22;26604;53.596;10.042;2022-09-02T04:48:31;21.30;99.90
15638;DHT22;26604;53.596;10.042;2022-09-02T04:51:03;21.30;99.90
15638;DHT22;26604;53.596;10.042;2022-09-02T04:53:30;21.30;99.90
15638;DHT22;26604;53.596;10.042;2022-09-02T04:55:57;21.30;99.90
15638;DHT22;26604;53.596;10.042;2022-09-02T04:58:24;21.30;99.90
15638;DHT22;26604;53.596;10.042;2022-09-02T05:00:53;21.30;99.90
15638;DHT22;26604;53.596;10.042;2022-09-02T05:03:20;21.30;99.90
15638;DHT22;26604;53.596;10.042;2022-09-02T05:05:59;21.30;99.90
15638;DHT22;26604;53.596;10.042;2022-09-02T05:08:26;21.30;97.20
15638;DHT22;26604;53.596;10.042;2022-09-02T05:10:53;21.30;73.40
15638;DHT22;26604;53.596;10.042;2022-09-02T05:13:20;21.40;53.70
15638;DHT22;26604;53.596;10.042;2022-09-02T05:15:48;21.30;29.70
15638;DHT22;26604;53.596;10.042;2022-09-02T05:18:15;21.30;14.90
15638;DHT22;26604;53.596;10.042;2022-09-02T05:20:42;21.30;1.00
15638;DHT22;26604;53.596;10.042;2022-09-02T05:23:11;21.30;1.00
15638;DHT22;26604;53.596;10.042;2022-09-02T05:25:39;21.30;1.00
15638;DHT22;26604;53.596;10.042;2022-09-02T05:28:06;21.30;1.00
15638;DHT22;26604;53.596;10.042;2022-09-02T05:30:34;21.40;1.00
15638;DHT22;26604;53.596;10.042;2022-09-02T05:33:01;21.40;1.00
15638;DHT22;26604;53.596;10.042;2022-09-02T05:35:28;21.40;99.90
15638;DHT22;26604;53.596;10.042;2022-09-02T05:37:55;21.40;99.90
15638;DHT22;26604;53.596;10.042;2022-09-02T05:40:24;21.40;1.00
15638;DHT22;26604;53.596;10.042;2022-09-02T05:42:51;21.40;1.00
15638;DHT22;26604;53.596;10.042;2022-09-02T05:45:18;21.40;99.90
15638;DHT22;26604;53.596;10.042;2022-09-02T05:47:48;21.40;1.00
15638;DHT22;26604;53.596;10.042;2022-09-02T05:50:15;21.40;99.90
15638;DHT22;26604;53.596;10.042;2022-09-02T05:52:42;21.40;1.00
15638;DHT22;26604;53.596;10.042;2022-09-02T05:55:09;21.40;99.90
15638;DHT22;26604;53.596;10.042;2022-09-02T05:57:38;21.40;1.00
15638;DHT22;26604;53.596;10.042;2022-09-02T06:00:06;21.40;1.00
15638;DHT22;26604;53.596;10.042;2022-09-02T06:02:33;21.40;1.00
15638;DHT22;26604;53.596;10.042;2022-09-02T06:05:00;21.40;1.00
15638;DHT22;26604;53.596;10.042;2022-09-02T06:07:27;21.40;1.00
15638;DHT22;26604;53.596;10.042;2022-09-02T06:09:54;21.40;1.00
15638;DHT22;26604;53.596;10.042;2022-09-02T06:12:21;21.40;1.00
15638;DHT22;26604;53.596;10.042;2022-09-02T06:14:49;21.40;99.90
15638;DHT22;26604;53.596;10.042;2022-09-02T06:17:16;21.50;1.00
15638;DHT22;26604;53.596;10.042;2022-09-02T06:19:43;21.60;83.40
15638;DHT22;26604;53.596;10.042;2022-09-02T06:22:10;21.60;4.00
15638;DHT22;26604;53.596;10.042;2022-09-02T06:24:37;21.60;1.00
15638;DHT22;26604;53.596;10.042;2022-09-02T06:27:04;21.60;1.00
15638;DHT22;26604;53.596;10.042;2022-09-02T06:29:32;21.60;1.00
15638;DHT22;26604;53.596;10.042;2022-09-02T06:32:00;21.60;99.90
15638;DHT22;26604;53.596;10.042;2022-09-02T06:34:27;21.60;99.90
15638;DHT22;26604;53.596;10.042;2022-09-02T06:36:54;21.60;45.30
15638;DHT22;26604;53.596;10.042;2022-09-02T06:39:22;21.60;1.00
15638;DHT22;26604;53.596;10.042;2022-09-02T06:41:51;21.50;1.00
15638;DHT22;26604;53.596;10.042;2022-09-02T06:44:18;21.50;1.00
15638;DHT22;26604;53.596;10.042;2022-09-02T06:46:51;21.50;1.00
15638;DHT22;26604;53.596;10.042;2022-09-02T06:49:20;21.50;1.00
15638;DHT22;26604;53.596;10.042;2022-09-02T06:51:48;21.50;1.00
15638;DHT22;26604;53.596;10.042;2022-09-02T06:54:17;21.50;99.90
15638;DHT22;26604;53.596;10.042;2022-09-02T06:56:45;21.50;99.90
15638;DHT22;26604;53.596;10.042;2022-09-02T06:59:12;21.50;99.90
15638;DHT22;26604;53.596;10.042;2022-09-02T07:01:39;21.50;99.90
15638;DHT22;26604;53.596;10.042;2022-09-02T07:04:06;21.50;33.60
15638;DHT22;26604;53.596;10.042;2022-09-02T07:06:53;21.50;1.00
15638;DHT22;26604;53.596;10.042;2022-09-02T07:09:23;21.50;1.00
15638;DHT22;26604;53.596;10.042;2022-09-02T07:11:55;21.50;1.00
15638;DHT22;26604;53.596;10.042;2022-09-02T07:14:22;21.50;1.00
15638;DHT22;26604;53.596;10.042;2022-09-02T07:16:53;21.60;1.00
15638;DHT22;26604;53.596;10.042;2022-09-02T07:19:22;21.60;99.90
15638;DHT22;26604;53.596;10.042;2022-09-02T07:21:49;21.60;99.90
15638;DHT22;26604;53.596;10.042;2022-09-02T07:24:18;21.60;99.90
15638;DHT22;26604;53.596;10.042;2022-09-02T07:26:45;21.60;99.90
15638;DHT22;26604;53.596;10.042;2022-09-02T07:29:12;21.60;62.10
15638;DHT22;26604;53.596;10.042;2022-09-02T07:31:41;21.50;1.00
15638;DHT22;26604;53.596;10.042;2022-09-02T07:34:09;21.60;1.00
15638;DHT22;26604;53.596;10.042;2022-09-02T07:36:36;21.60;1.00
15638;DHT22;26604;53.596;10.042;2022-09-02T07:39:05;21.60;1.00
15638;DHT22;26604;53.596;10.042;2022-09-02T07:41:34;21.60;99.90
15638;DHT22;26604;53.596;10.042;2022-09-02T07:44:02;21.60;99.90
15638;DHT22;26604;53.596;10.042;2022-09-02T07:46:29;21.60;99.90
15638;DHT22;26604;53.596;10.042;2022-09-02T07:48:57;21.60;99.20
15638;DHT22;26604;53.596;10.042;2022-09-02T07:51:24;21.60;27.50
15638;DHT22;26604;53.596;10.042;2022-09-02T07:53:51;21.60;1.00
15638;DHT22;26604;53.596;10.042;2022-09-02T07:56:18;21.60;1.00
15638;DHT22;26604;53.596;10.042;2022-09-02T07:58:46;21.60;1.00
15638;DHT22;26604;53.596;10.042;2022-09-02T08:01:15;21.60;1.00
15638;DHT22;26604;53.596;10.042;2022-09-02T08:03:42;21.60;1.00
15638;DHT22;26604;53.596;10.042;2022-09-02T08:06:10;21.60;99.90
15638;DHT22;26604;53.596;10.042;2022-09-02T08:08:37;21.60;99.90
15638;DHT22;26604;53.596;10.042;2022-09-02T08:11:04;21.60;99.90
15638;DHT22;26604;53.596;10.042;2022-09-02T08:13:32;21.60;5.60
15638;DHT22;26604;53.596;10.042;2022-09-02T08:16:00;21.60;1.00
15638;DHT22;26604;53.596;10.042;2022-09-02T08:18:27;21.70;99.90
15638;DHT22;26604;53.596;10.042;2022-09-02T08:20:54;21.70;1.00
15638;DHT22;26604;53.596;10.042;2022-09-02T08:23:21;21.80;1.00
15638;DHT22;26604;53.596;10.042;2022-09-02T08:25:48;21.80;1.00
15638;DHT22;26604;53.596;10.042;2022-09-02T08:28:15;21.90;1.00
15638;DHT22;26604;53.596;10.042;2022-09-02T08:30:42;22.00;1.00
15638;DHT22;26604;53.596;10.042;2022-09-02T08:33:11;22.00;25.20
15638;DHT22;26604;53.596;10.042;2022-09-02T08:35:38;22.00;99.90
15638;DHT22;26604;53.596;10.042;2022-09-02T08:38:05;22.00;99.90
15638;DHT22;26604;53.596;10.042;2022-09-02T08:40:36;22.00;1.00
15638;DHT22;26604;53.596;10.042;2022-09-02T08:43:12;21.90;1.00
15638;DHT22;26604;53.596;10.042;2022-09-02T08:45:41;21.90;1.00
15638;DHT22;26604;53.596;10.042;2022-09-02T08:48:16;21.90;1.00
15638;DHT22;26604;53.596;10.042;2022-09-02T08:50:48;21.90;1.00
15638;DHT22;26604;53.596;10.042;2022-09-02T08:53:21;21.80;1.00
15638;DHT22;26604;53.596;10.042;2022-09-02T08:55:53;21.80;1.00
15638;DHT22;26604;53.596;10.042;2022-09-02T08:58:23;21.80;1.00
15638;DHT22;26604;53.596;10.042;2022-09-02T09:00:55;21.80;1.00
15638;DHT22;26604;53.596;10.042;2022-09-02T09:03:29;21.80;1.00
15638;DHT22;26604;53.596;10.042;2022-09-02T09:06:03;21.80;1.00
15638;DHT22;26604;53.596;10.042;2022-09-02T09:08:40;21.70;1.00
15638;DHT22;26604;53.596;10.042;2022-09-02T09:11:15;21.70;1.00
15638;DHT22;26604;53.596;10.042;2022-09-02T09:14:20;21.70;1.00
15638;DHT22;26604;53.596;10.042;2022-09-02T09:16:54;21.70;1.00
15638;DHT22;26604;53.596;10.042;2022-09-02T09:19:29;21.70;1.00
15638;DHT22;26604;53.596;10.042;2022-09-02T09:22:00;21.70;1.00
15638;DHT22;26604;53.596;10.042;2022-09-02T09:24:34;21.70;1.00
15638;DHT22;26604;53.596;10.042;2022-09-02T09:27:04;21.70;1.00
15638;DHT22;26604;53.596;10.042;2022-09-02T09:29:33;21.70;1.00
15638;DHT22;26604;53.596;10.042;2022-09-02T09:32:01;21.70;1.00
15638;DHT22;26604;53.596;10.042;2022-09-02T09:34:58;21.70;1.00
15638;DHT22;26604;53.596;10.042;2022-09-02T09:37:31;21.70;99.90
15638;DHT22;26604;53.596;10.042;2022-09-02T09:39:59;21.70;99.90
15638;DHT22;26604;53.596;10.042;2022-09-02T09:42:32;21.70;99.90
15638;DHT22;26604;53.596;10.042;2022-09-02T09:45:00;21.70;99.90
15638;DHT22;26604;53.596;10.042;2022-09-02T09:47:40;21.70;99.90
15638;DHT22;26604;53.596;10.042;2022-09-02T09:50:14;21.70;99.90
15638;DHT22;26604;53.596;10.042;2022-09-02T09:52:41;21.70;99.90
15638;DHT22;26604;53.596;10.042;2022-09-02T09:55:16;21.70;99.90
15638;DHT22;26604;53.596;10.042;2022-09-02T09:57:46;21.70;99.90
15638;DHT22;26604;53.596;10.042;2022-09-02T10:00:19;21.80;1.00
15638;DHT22;26604;53.596;10.042;2022-09-02T10:02:47;21.90;99.90
15638;DHT22;26604;53.596;10.042;2022-09-02T10:05:30;21.90;99.90
15638;DHT22;26604;53.596;10.042;2022-09-02T10:07:58;21.90;99.90
15638;DHT22;26604;53.596;10.042;2022-09-02T10:10:28;21.90;99.90
15638;DHT22;26604;53.596;10.042;2022-09-02T10:12:58;21.90;99.90
15638;DHT22;26604;53.596;10.042;2022-09-02T10:15:43;21.90;99.90
15638;DHT22;26604;53.596;10.042;2022-09-02T10:18:19;21.90;99.90
15638;DHT22;26604;53.596;10.042;2022-09-02T10:20:55;21.90;99.90
15638;DHT22;26604;53.596;10.042;2022-09-02T10:23:35;21.90;1.00
15638;DHT22;26604;53.596;10.042;2022-09-02T10:26:12;21.90;1.00
15638;DHT22;26604;53.596;10.042;2022-09-02T10:31:39;21.90;99.90
15638;DHT22;26604;53.596;10.042;2022-09-02T10:34:17;21.90;1.00
15638;DHT22;26604;53.596;10.042;2022-09-02T10:37:13;21.90;1.00
15638;DHT22;26604;53.596;10.042;2022-09-02T10:39:57;21.90;99.90
15638;DHT22;26604;53.596;10.042;2022-09-02T10:42:33;21.90;99.90
15638;DHT22;26604;53.596;10.042;2022-09-02T10:45:09;21.90;1.00
15638;DHT22;26604;53.596;10.042;2022-09-02T10:47:39;21.90;1.00
15638;DHT22;26604;53.596;10.042;2022-09-02T10:50:12;21.90;1.00
15638;DHT22;26604;53.596;10.042;2022-09-02T10:52:57;21.90;25.20
15638;DHT22;26604;53.596;10.042;2022-09-02T10:55:34;21.90;99.90
15638;DHT22;26604;53.596;10.042;2022-09-02T10:58:12;21.90;99.90
15638;DHT22;26604;53.596;10.042;2022-09-02T11:00:43;21.90;99.90
15638;DHT22;26604;53.596;10.042;2022-09-02T11:03:16;21.90;99.90
15638;DHT22;26604;53.596;10.042;2022-09-02T11:05:48;22.00;99.90
15638;DHT22;26604;53.596;10.042;2022-09-02T11:08:22;21.90;99.90
15638;DHT22;26604;53.596;10.042;2022-09-02T11:10:59;21.90;99.90
15638;DHT22;26604;53.596;10.042;2022-09-02T11:13:36;21.90;99.90
15638;DHT22;26604;53.596;10.042;2022-09-02T11:16:07;21.90;99.90
15638;DHT22;26604;53.596;10.042;2022-09-02T11:18:45;21.90;99.90
15638;DHT22;26604;53.596;10.042;2022-09-02T11:21:36;21.90;99.90
15638;DHT22;26604;53.596;10.042;2022-09-02T11:24:12;21.90;99.90
15638;DHT22;26604;53.596;10.042;2022-09-02T11:26:45;22.00;99.90
15638;DHT22;26604;53.596;10.042;2022-09-02T11:29:17;21.90;99.90
15638;DHT22;26604;53.596;10.042;2022-09-02T11:31:49;21.90;99.90
15638;DHT22;26604;53.596;10.042;2022-09-02T11:34:29;21.90;99.90
15638;DHT22;26604;53.596;10.042;2022-09-02T11:36:59;21.90;99.90
15638;DHT22;26604;53.596;10.042;2022-09-02T11:39:32;22.00;99.90
15638;DHT22;26604;53.596;10.042;2022-09-02T11:42:19;22.00;99.90
15638;DHT22;26604;53.596;10.042;2022-09-02T11:45:07;21.90;99.90
15638;DHT22;26604;53.596;10.042;2022-09-02T11:48:00;21.90;99.90
15638;DHT22;26604;53.596;10.042;2022-09-02T11:50:46;21.90;99.90
15638;DHT22;26604;53.596;10.042;2022-09-02T11:53:19;21.90;99.90
15638;DHT22;26604;53.596;10.042;2022-09-02T11:55:51;21.90;99.90
15638;DHT22;26604;53.596;10.042;2022-09-02T11:58:32;21.90;99.90
15638;DHT22;26604;53.596;10.042;2022-09-02T12:01:21;22.10;99.90
15638;DHT22;26604;53.596;10.042;2022-09-02T12:03:53;21.90;99.90
15638;DHT22;26604;53.596;10.042;2022-09-02T12:06:22;21.90;99.90
15638;DHT22;26604;53.596;10.042;2022-09-02T12:09:09;21.90;99.90
15638;DHT22;26604;53.596;10.042;2022-09-02T12:11:52;21.90;99.90
15638;DHT22;26604;53.596;10.042;2022-09-02T12:15:00;21.90;99.90
15638;DHT22;26604;53.596;10.042;2022-09-02T12:21:04;22.00;99.90
15638;DHT22;26604;53.596;10.042;2022-09-02T12:24:05;22.00;99.90
15638;DHT22;26604;53.596;10.042;2022-09-02T12:29:43;22.00;99.90
15638;DHT22;26604;53.596;10.042;2022-09-02T12:32:10;22.00;99.90
15638;DHT22;26604;53.596;10.042;2022-09-02T12:34:52;22.00;99.90
15638;DHT22;26604;53.596;10.042;2022-09-02T12:40:28;22.00;99.90
15638;DHT22;26604;53.596;10.042;2022-09-02T12:42:59;22.00;99.90
15638;DHT22;26604;53.596;10.042;2022-09-02T12:45:30;22.00;99.90
15638;DHT22;26604;53.596;10.042;2022-09-02T12:48:00;22.00;99.90
15638;DHT22;26604;53.596;10.042;2022-09-02T12:50:30;22.00;99.90
15638;DHT22;26604;53.596;10.042;2022-09-02T12:53:14;22.00;99.90
15638;DHT22;26604;53.596;10.042;2022-09-02T12:55:52;22.00;1.00
15638;DHT22;26604;53.596;10.042;2022-09-02T12:58:22;22.00;1.00
15638;DHT22;26604;53.596;10.042;2022-09-02T13:00:59;22.00;1.00
15638;DHT22;26604;53.596;10.042;2022-09-02T13:03:42;21.90;1.00
15638;DHT22;26604;53.596;10.042;2022-09-02T13:06:24;22.00;1.00
15638;DHT22;26604;53.596;10.042;2022-09-02T13:15:19;22.00;1.00
15638;DHT22;26604;53.596;10.042;2022-09-02T13:18:12;22.00;1.00
15638;DHT22;26604;53.596;10.042;2022-09-02T13:20:56;22.00;1.00
15638;DHT22;26604;53.596;10.042;2022-09-02T13:24:00;22.00;1.00
15638;DHT22;26604;53.596;10.042;2022-09-02T13:26:46;22.00;1.00
15638;DHT22;26604;53.596;10.042;2022-09-02T13:32:26;22.00;99.90
15638;DHT22;26604;53.596;10.042;2022-09-02T13:34:58;22.10;99.90
15638;DHT22;26604;53.596;10.042;2022-09-02T13:37:27;22.20;99.90
15638;DHT22;26604;53.596;10.042;2022-09-02T13:39:54;22.20;1.00
15638;DHT22;26604;53.596;10.042;2022-09-02T13:42:23;22.20;1.00
15638;DHT22;26604;53.596;10.042;2022-09-02T13:44:50;22.20;1.00
15638;DHT22;26604;53.596;10.042;2022-09-02T13:47:33;22.20;1.00
15638;DHT22;26604;53.596;10.042;2022-09-02T13:50:04;22.20;99.90
15638;DHT22;26604;53.596;10.042;2022-09-02T13:52:36;22.20;99.90
15638;DHT22;26604;53.596;10.042;2022-09-02T13:55:04;22.10;99.90
15638;DHT22;26604;53.596;10.042;2022-09-02T13:57:33;22.10;99.90
15638;DHT22;26604;53.596;10.042;2022-09-02T14:00:02;22.10;1.00
15638;DHT22;26604;53.596;10.042;2022-09-02T14:02:32;22.10;1.00
15638;DHT22;26604;53.596;10.042;2022-09-02T14:05:03;22.10;1.00
15638;DHT22;26604;53.596;10.042;2022-09-02T14:07:36;22.10;1.00
15638;DHT22;26604;53.596;10.042;2022-09-02T14:10:07;22.10;1.00
15638;DHT22;26604;53.596;10.042;2022-09-02T14:12:37;22.10;1.00
15638;DHT22;26604;53.596;10.042;2022-09-02T14:15:06;22.10;1.00
15638;DHT22;26604;53.596;10.042;2022-09-02T14:17:34;22.10;1.00
15638;DHT22;26604;53.596;10.042;2022-09-02T14:20:15;22.10;1.00
15638;DHT22;26604;53.596;10.042;2022-09-02T14:22:43;22.00;99.90
15638;DHT22;26604;53.596;10.042;2022-09-02T14:25:12;22.10;99.90
15638;DHT22;26604;53.596;10.042;2022-09-02T14:27:47;22.00;99.90
15638;DHT22;26604;53.596;10.042;2022-09-02T14:30:27;22.00;99.90
15638;DHT22;26604;53.596;10.042;2022-09-02T14:33:16;22.00;99.90
15638;DHT22;26604;53.596;10.042;2022-09-02T14:35:56;22.00;99.90
15638;DHT22;26604;53.596;10.042;2022-09-02T14:38:24;22.00;1.00
15638;DHT22;26604;53.596;10.042;2022-09-02T14:40:59;22.00;1.00
15638;DHT22;26604;53.596;10.042;2022-09-02T14:43:26;22.00;1.00
15638;DHT22;26604;53.596;10.042;2022-09-02T14:46:03;22.00;1.00
15638;DHT22;26604;53.596;10.042;2022-09-02T14:48:35;22.00;1.00
15638;DHT22;26604;53.596;10.042;2022-09-02T14:51:06;22.00;1.00
15638;DHT22;26604;53.596;10.042;2022-09-02T14:53:34;22.00;1.00
15638;DHT22;26604;53.596;10.042;2022-09-02T14:56:04;22.00;1.00
15638;DHT22;26604;53.596;10.042;2022-09-02T14:58:31;22.00;1.00
15638;DHT22;26604;53.596;10.042;2022-09-02T15:00:59;22.00;1.00
15638;DHT22;26604;53.596;10.042;2022-09-02T15:03:28;22.00;1.00
15638;DHT22;26604;53.596;10.042;2022-09-02T15:05:55;22.00;1.00
15638;DHT22;26604;53.596;10.042;2022-09-02T15:08:23;22.00;1.00
15638;DHT22;26604;53.596;10.042;2022-09-02T15:10:51;22.00;1.00
15638;DHT22;26604;53.596;10.042;2022-09-02T15:13:24;22.00;1.00
15638;DHT22;26604;53.596;10.042;2022-09-02T15:15:52;22.00;1.00
15638;DHT22;26604;53.596;10.042;2022-09-02T15:18:20;22.00;1.00
15638;DHT22;26604;53.596;10.042;2022-09-02T15:20:47;22.00;1.00
15638;DHT22;26604;53.596;10.042;2022-09-02T15:23:14;22.00;1.00
15638;DHT22;26604;53.596;10.042;2022-09-02T15:25:42;22.00;1.00
15638;DHT22;26604;53.596;10.042;2022-09-02T15:28:09;22.00;1.00
15638;DHT22;26604;53.596;10.042;2022-09-02T15:30:37;22.00;1.00
15638;DHT22;26604;53.596;10.042;2022-09-02T15:33:05;22.00;1.00
15638;DHT22;26604;53.596;10.042;2022-09-02T15:35:32;22.00;1.00
15638;DHT22;26604;53.596;10.042;2022-09-02T15:38:00;22.00;1.00
15638;DHT22;26604;53.596;10.042;2022-09-02T15:40:27;22.00;1.00
15638;DHT22;26604;53.596;10.042;2022-09-02T15:42:56;22.00;99.90
15638;DHT22;26604;53.596;10.042;2022-09-02T15:45:23;22.00;99.90
15638;DHT22;26604;53.596;10.042;2022-09-02T15:47:51;22.00;99.90
15638;DHT22;26604;53.596;10.042;2022-09-02T15:50:17;22.00;41.20
15638;DHT22;26604;53.596;10.042;2022-09-02T15:52:44;22.00;1.00
15638;DHT22;26604;53.596;10.042;2022-09-02T15:55:11;22.00;1.00
15638;DHT22;26604;53.596;10.042;2022-09-02T15:57:38;22.00;1.00
15638;DHT22;26604;53.596;10.042;2022-09-02T16:00:08;22.00;1.00
15638;DHT22;26604;53.596;10.042;2022-09-02T16:02:35;21.90;1.00
15638;DHT22;26604;53.596;10.042;2022-09-02T16:05:03;22.00;1.00
15638;DHT22;26604;53.596;10.042;2022-09-02T16:07:30;21.90;1.00